Time;durP1;ratioP1;P1;durP2;ratioP2;P2;SDS_P1;SDS_P2;PMS_P1;PMS_P2;Temp;Humidity;BMP_temperature;BMP_pressure;BME280_temperature;BME280_humidity;BME280_pressure;Samples;Min_cycle;Max_cycle;Signal;HPM_P1;HPM_P2
2022/04/14 00:01:26;;;;;;;51.70;30.75;;;;;;;;;;7375329;19;20017;-79
2022/04/14 00:03:51;;;;;;;47.65;28.83;;;;;;;;;;7377896;19;20094;-79
2022/04/14 00:06:16;;;;;;;47.08;27.90;;;;;;;;;;7381560;19;20025;-79
2022/04/14 00:08:42;;;;;;;45.47;27.65;;;;;;;;;;7381621;19;20543;-78
2022/04/14 00:11:07;;;;;;;44.20;26.92;;;;;;;;;;7378480;19;20070;-78
2022/04/14 00:13:33;;;;;;;38.60;24.05;;;;;;;;;;7379415;19;20030;-78
2022/04/14 00:15:58;;;;;;;47.55;26.30;;;;;;;;;;7373954;19;20035;-79
2022/04/14 00:18:23;;;;;;;37.13;23.87;;;;;;;;;;7382072;19;20006;-78
2022/04/14 00:20:48;;;;;;;39.57;23.33;;;;;;;;;;7381869;19;20247;-78
2022/04/14 00:23:13;;;;;;;35.87;22.13;;;;;;;;;;7380729;19;20366;-78
2022/04/14 00:25:39;;;;;;;35.10;18.93;;;;;;;;;;7381101;19;20267;-79
2022/04/14 00:28:04;;;;;;;25.60;16.48;;;;;;;;;;7377757;19;20675;-79
2022/04/14 00:30:29;;;;;;;30.58;16.33;;;;;;;;;;7374674;19;20383;-78
2022/04/14 00:32:54;;;;;;;25.77;15.68;;;;;;;;;;7380430;19;20308;-79
2022/04/14 00:35:19;;;;;;;27.33;15.35;;;;;;;;;;7379685;19;20010;-77
2022/04/14 00:37:45;;;;;;;26.57;16.27;;;;;;;;;;7377157;19;20011;-79
2022/04/14 00:40:10;;;;;;;24.83;15.10;;;;;;;;;;7380966;19;20231;-79
2022/04/14 00:42:35;;;;;;;26.75;15.20;;;;;;;;;;7380853;19;20231;-77
2022/04/14 00:45:01;;;;;;;27.52;15.00;;;;;;;;;;7375586;19;20589;-79
2022/04/14 00:47:26;;;;;;;27.63;15.23;;;;;;;;;;7377373;19;20018;-78
2022/04/14 00:49:51;;;;;;;22.42;14.20;;;;;;;;;;7373187;19;20058;-78
2022/04/14 00:52:17;;;;;;;23.85;13.52;;;;;;;;;;7380382;19;20019;-78
2022/04/14 00:54:42;;;;;;;23.50;13.60;;;;;;;;;;7378426;19;20323;-78
2022/04/14 00:57:08;;;;;;;22.13;12.82;;;;;;;;;;7378552;19;20503;-78
2022/04/14 00:59:34;;;;;;;23.58;11.98;;;;;;;;;;7343615;19;20034;-79
2022/04/14 01:01:59;;;;;;;25.38;12.52;;;;;;;;;;7372879;19;20029;-80
2022/04/14 01:04:24;;;;;;;23.85;11.50;;;;;;;;;;7378557;19;20018;-77
2022/04/14 01:06:50;;;;;;;21.15;12.23;;;;;;;;;;7376112;19;20014;-80
2022/04/14 01:09:16;;;;;;;21.98;11.90;;;;;;;;;;7369864;19;19998;-78
2022/04/14 01:11:43;;;;;;;21.83;10.60;;;;;;;;;;7377449;19;20010;-79
2022/04/14 01:14:17;;;;;;;21.58;10.52;;;;;;;;;;7375809;19;20002;-80
2022/04/14 01:16:42;;;;;;;;;;;;;;;;;;7373100;19;20043;-81
2022/04/14 01:19:08;;;;;;;20.27;11.20;;;;;;;;;;7378768;19;19931;-78
2022/04/14 01:21:33;;;;;;;22.35;11.88;;;;;;;;;;7381046;19;20085;-78
2022/04/14 01:23:58;;;;;;;21.05;11.80;;;;;;;;;;7371861;19;20009;-78
2022/04/14 01:26:24;;;;;;;20.45;11.75;;;;;;;;;;7375360;19;20015;-78
2022/04/14 01:28:49;;;;;;;17.98;10.30;;;;;;;;;;7374842;19;20025;-80
2022/04/14 01:31:14;;;;;;;19.85;10.20;;;;;;;;;;7372744;19;20104;-80
2022/04/14 01:33:39;;;;;;;19.75;11.05;;;;;;;;;;7378073;19;20006;-78
2022/04/14 01:36:05;;;;;;;19.02;10.18;;;;;;;;;;7373133;19;20014;-79
2022/04/14 01:38:30;;;;;;;18.65;10.05;;;;;;;;;;7378393;19;20058;-79
2022/04/14 01:40:56;;;;;;;16.23;10.03;;;;;;;;;;7343233;19;20069;-79
2022/04/14 01:43:21;;;;;;;22.67;9.95;;;;;;;;;;7366208;19;20230;-78
2022/04/14 01:45:50;;;;;;;20.50;9.70;;;;;;;;;;7370329;19;20085;-77
2022/04/14 01:48:16;;;;;;;18.85;9.80;;;;;;;;;;7379799;19;20270;-77
2022/04/14 01:50:41;;;;;;;19.25;10.35;;;;;;;;;;7375785;19;20006;-76
2022/04/14 01:53:06;;;;;;;18.17;10.25;;;;;;;;;;7378494;19;19991;-78
2022/04/14 01:55:31;;;;;;;19.42;9.82;;;;;;;;;;7377260;19;20003;-76
2022/04/14 01:57:56;;;;;;;20.47;10.83;;;;;;;;;;7375950;19;20492;-76
2022/04/14 02:00:22;;;;;;;17.83;9.60;;;;;;;;;;7374432;19;20690;-76
2022/04/14 02:02:47;;;;;;;22.20;10.63;;;;;;;;;;7367759;19;20279;-77
2022/04/14 02:05:12;;;;;;;18.10;10.00;;;;;;;;;;7381768;19;20003;-77
2022/04/14 02:07:37;;;;;;;18.40;9.70;;;;;;;;;;7377156;19;20034;-76
2022/04/14 02:10:03;;;;;;;17.50;9.23;;;;;;;;;;7379798;19;21125;-77
2022/04/14 02:12:29;;;;;;;18.98;9.95;;;;;;;;;;7380173;19;20494;-76
2022/04/14 02:14:54;;;;;;;18.50;10.05;;;;;;;;;;7370894;19;20002;-76
2022/04/14 02:17:19;;;;;;;19.10;10.07;;;;;;;;;;7379674;19;20447;-77
2022/04/14 02:19:45;;;;;;;18.50;10.27;;;;;;;;;;7380803;19;20364;-77
2022/04/14 02:22:10;;;;;;;19.80;10.53;;;;;;;;;;7376718;19;20014;-77
2022/04/14 02:24:35;;;;;;;19.75;10.38;;;;;;;;;;7378732;19;20273;-78
2022/04/14 02:27:00;;;;;;;17.57;9.97;;;;;;;;;;7376394;19;20068;-78
2022/04/14 02:29:25;;;;;;;22.75;10.10;;;;;;;;;;7373941;19;20252;-78
2022/04/14 02:31:53;;;;;;;22.90;11.00;;;;;;;;;;7375575;19;20022;-76
2022/04/14 02:34:18;;;;;;;21.58;10.88;;;;;;;;;;7372840;19;20246;-77
2022/04/14 02:36:44;;;;;;;19.00;10.60;;;;;;;;;;7379003;19;21203;-76
2022/04/14 02:39:09;;;;;;;19.10;9.18;;;;;;;;;;7378306;19;20329;-77
2022/04/14 02:41:35;;;;;;;20.30;10.50;;;;;;;;;;7378689;19;20011;-77
2022/04/14 02:44:00;;;;;;;20.02;11.13;;;;;;;;;;7375319;19;20007;-77
2022/04/14 02:46:25;;;;;;;21.30;11.37;;;;;;;;;;7376141;19;20015;-77
2022/04/14 02:48:50;;;;;;;19.13;10.00;;;;;;;;;;7378978;19;20288;-76
2022/04/14 02:51:16;;;;;;;20.00;10.37;;;;;;;;;;7376592;19;20357;-77
2022/04/14 02:53:41;;;;;;;19.10;10.95;;;;;;;;;;7379822;19;20240;-76
2022/04/14 02:56:06;;;;;;;22.65;11.25;;;;;;;;;;7376305;19;20013;-76
2022/04/14 02:58:32;;;;;;;20.60;10.73;;;;;;;;;;7367842;19;20007;-80
2022/04/14 03:00:57;;;;;;;21.73;11.38;;;;;;;;;;7349219;19;21243;-78
2022/04/14 03:03:24;;;;;;;21.73;10.98;;;;;;;;;;7381043;19;20028;-77
2022/04/14 03:05:49;;;;;;;17.58;10.50;;;;;;;;;;7385140;19;20009;-76
2022/04/14 03:08:14;;;;;;;22.25;10.95;;;;;;;;;;7384253;19;20010;-76
2022/04/14 03:10:39;;;;;;;20.73;10.90;;;;;;;;;;7384238;19;20019;-76
2022/04/14 03:13:05;;;;;;;22.57;11.60;;;;;;;;;;7386827;19;20712;-76
2022/04/14 03:15:30;;;;;;;24.83;12.77;;;;;;;;;;7353406;19;20710;-76
2022/04/14 03:17:55;;;;;;;25.75;12.52;;;;;;;;;;7383995;19;20013;-77
2022/04/14 03:20:21;;;;;;;23.98;12.93;;;;;;;;;;7388334;19;20178;-77
2022/04/14 03:22:46;;;;;;;22.48;12.48;;;;;;;;;;7384991;19;20018;-78
2022/04/14 03:25:11;;;;;;;24.90;12.20;;;;;;;;;;7377140;19;20010;-77
2022/04/14 03:27:37;;;;;;;25.92;12.73;;;;;;;;;;7383504;19;20002;-76
2022/04/14 03:30:03;;;;;;;23.20;11.55;;;;;;;;;;7378290;19;20002;-77
2022/04/14 03:32:28;;;;;;;27.38;12.40;;;;;;;;;;7386893;19;20011;-77
2022/04/14 03:34:53;;;;;;;19.40;10.20;;;;;;;;;;7385467;19;20026;-76
2022/04/14 03:37:19;;;;;;;19.15;10.30;;;;;;;;;;7380610;19;20259;-77
2022/04/14 03:39:44;;;;;;;22.80;10.93;;;;;;;;;;7384087;19;20460;-77
2022/04/14 03:42:09;;;;;;;23.50;11.30;;;;;;;;;;7386943;19;20014;-77
2022/04/14 03:44:34;;;;;;;23.08;10.88;;;;;;;;;;7380703;19;19999;-77
2022/04/14 03:46:59;;;;;;;24.02;12.52;;;;;;;;;;7381133;19;20007;-76
2022/04/14 03:49:25;;;;;;;20.33;10.40;;;;;;;;;;7384896;19;20017;-78
2022/04/14 03:51:54;;;;;;;20.02;11.00;;;;;;;;;;7380293;19;20571;-76
2022/04/14 03:54:19;;;;;;;19.33;10.65;;;;;;;;;;7384664;19;20038;-77
2022/04/14 03:56:46;;;;;;;23.58;11.75;;;;;;;;;;7383885;19;20018;-77
2022/04/14 03:59:13;;;;;;;21.20;11.52;;;;;;;;;;7373849;19;20002;-77
2022/04/14 04:01:38;;;;;;;25.30;12.05;;;;;;;;;;7376055;19;20010;-77
2022/04/14 04:04:03;;;;;;;24.00;12.60;;;;;;;;;;7384053;19;20190;-77
2022/04/14 04:06:29;;;;;;;23.63;12.27;;;;;;;;;;7379308;19;20417;-77
2022/04/14 04:08:54;;;;;;;19.60;11.47;;;;;;;;;;7384059;19;20346;-77
2022/04/14 04:11:19;;;;;;;20.73;10.77;;;;;;;;;;7379997;19;20025;-76
2022/04/14 04:13:44;;;;;;;21.43;11.83;;;;;;;;;;7377887;19;20003;-77
2022/04/14 04:16:10;;;;;;;23.98;12.45;;;;;;;;;;7380235;19;20253;-77
2022/04/14 04:18:36;;;;;;;23.42;12.45;;;;;;;;;;7382344;19;20013;-78
2022/04/14 04:21:01;;;;;;;23.40;12.33;;;;;;;;;;7383574;19;20502;-78
2022/04/14 04:23:26;;;;;;;21.43;11.50;;;;;;;;;;7386100;19;20248;-78
2022/04/14 04:25:51;;;;;;;25.25;12.25;;;;;;;;;;7385308;19;20728;-77
2022/04/14 04:28:16;;;;;;;25.58;11.48;;;;;;;;;;7382667;19;20026;-78
2022/04/14 04:30:42;;;;;;;19.40;10.85;;;;;;;;;;7381706;19;20034;-78
2022/04/14 04:33:07;;;;;;;25.98;12.23;;;;;;;;;;7382940;19;20017;-78
2022/04/14 04:35:32;;;;;;;19.83;11.60;;;;;;;;;;7387237;19;20364;-78
2022/04/14 04:37:57;;;;;;;22.17;11.50;;;;;;;;;;7382974;19;20262;-78
2022/04/14 04:40:22;;;;;;;25.40;12.47;;;;;;;;;;7384253;19;20379;-78
2022/04/14 04:42:48;;;;;;;21.20;10.98;;;;;;;;;;7383509;19;20066;-78
2022/04/14 04:45:13;;;;;;;19.45;9.60;;;;;;;;;;7382505;19;19999;-78
2022/04/14 04:47:38;;;;;;;24.17;12.60;;;;;;;;;;7377308;19;20003;-78
2022/04/14 04:50:06;;;;;;;24.93;13.33;;;;;;;;;;7382444;19;20586;-77
2022/04/14 04:52:32;;;;;;;29.05;14.00;;;;;;;;;;7381904;19;20268;-78
2022/04/14 04:54:57;;;;;;;25.83;13.57;;;;;;;;;;7378354;19;20123;-77
2022/04/14 04:57:22;;;;;;;28.37;13.67;;;;;;;;;;7381556;19;20023;-77
2022/04/14 04:59:47;;;;;;;25.17;13.43;;;;;;;;;;7378412;19;20232;-77
2022/04/14 05:02:13;;;;;;;26.13;14.47;;;;;;;;;;7375582;19;20010;-76
2022/04/14 05:04:38;;;;;;;26.75;12.95;;;;;;;;;;7381863;19;20801;-77
2022/04/14 05:07:03;;;;;;;25.38;14.10;;;;;;;;;;7381387;19;20010;-77
2022/04/14 05:09:29;;;;;;;25.13;12.73;;;;;;;;;;7375956;19;20019;-76
2022/04/14 05:11:54;;;;;;;25.70;13.40;;;;;;;;;;7379365;19;20062;-78
2022/04/14 05:14:19;;;;;;;23.45;12.07;;;;;;;;;;7378777;19;20651;-78
2022/04/14 05:16:44;;;;;;;22.98;12.07;;;;;;;;;;7381081;19;20573;-78
2022/04/14 05:19:10;;;;;;;25.33;11.63;;;;;;;;;;7381621;19;20002;-78
2022/04/14 05:21:36;;;;;;;22.38;11.20;;;;;;;;;;7372174;19;20243;-77
2022/04/14 05:24:01;;;;;;;21.97;11.20;;;;;;;;;;7377991;19;20022;-77
2022/04/14 05:26:26;;;;;;;18.53;11.00;;;;;;;;;;7377790;19;20025;-78
2022/04/14 05:28:51;;;;;;;21.98;11.73;;;;;;;;;;7377312;19;20782;-77
2022/04/14 05:31:16;;;;;;;23.33;11.63;;;;;;;;;;7376773;19;20474;-78
2022/04/14 05:33:41;;;;;;;23.85;10.85;;;;;;;;;;7382284;19;20726;-77
2022/04/14 05:36:06;;;;;;;22.65;11.77;;;;;;;;;;7380021;19;20017;-77
2022/04/14 05:38:32;;;;;;;22.90;10.93;;;;;;;;;;7367918;19;20074;-77
2022/04/14 05:40:57;;;;;;;21.83;11.80;;;;;;;;;;7371107;19;19994;-77
2022/04/14 05:43:27;;;;;;;22.17;11.88;;;;;;;;;;7368967;19;20015;-77
2022/04/14 05:45:53;;;;;;;28.85;14.75;;;;;;;;;;7361374;19;20019;-78
2022/04/14 05:48:18;;;;;;;28.77;14.57;;;;;;;;;;7371212;19;20022;-77
2022/04/14 05:50:44;;;;;;;29.35;14.82;;;;;;;;;;7379600;19;20019;-77
2022/04/14 05:53:10;;;;;;;28.63;14.73;;;;;;;;;;7374514;19;20011;-77
2022/04/14 05:55:35;;;;;;;31.27;15.10;;;;;;;;;;7373467;19;20462;-77
2022/04/14 05:58:01;;;;;;;26.00;13.15;;;;;;;;;;7375003;19;20270;-79
2022/04/14 06:00:26;;;;;;;27.10;14.75;;;;;;;;;;7372351;19;20030;-80
2022/04/14 06:02:51;;;;;;;23.03;12.27;;;;;;;;;;7365816;19;20021;-77
2022/04/14 06:05:17;;;;;;;25.70;13.70;;;;;;;;;;7381481;19;20306;-77
2022/04/14 06:07:42;;;;;;;23.15;11.45;;;;;;;;;;7378858;19;20259;-79
2022/04/14 06:10:07;;;;;;;23.03;11.23;;;;;;;;;;7380447;19;20098;-77
2022/04/14 06:12:33;;;;;;;21.35;11.38;;;;;;;;;;7371580;19;20823;-77
2022/04/14 06:14:58;;;;;;;22.93;12.07;;;;;;;;;;7375179;19;20006;-80
2022/04/14 06:17:23;;;;;;;25.25;12.25;;;;;;;;;;7375761;19;20287;-77
2022/04/14 06:19:48;;;;;;;23.88;11.65;;;;;;;;;;7376045;19;19999;-80
2022/04/14 06:22:14;;;;;;;17.92;10.32;;;;;;;;;;7383245;19;20077;-77
2022/04/14 06:24:39;;;;;;;18.33;9.45;;;;;;;;;;7383680;19;20410;-80
2022/04/14 06:27:05;;;;;;;17.15;10.05;;;;;;;;;;7380831;19;20021;-77
2022/04/14 06:29:31;;;;;;;23.05;12.18;;;;;;;;;;7378128;19;20332;-78
2022/04/14 06:31:56;;;;;;;21.27;11.55;;;;;;;;;;7383566;19;20003;-77
2022/04/14 06:34:21;;;;;;;27.50;13.13;;;;;;;;;;7381917;19;20015;-77
2022/04/14 06:36:46;;;;;;;26.27;12.13;;;;;;;;;;7389355;19;20235;-77
2022/04/14 06:39:12;;;;;;;25.17;13.27;;;;;;;;;;7386738;19;20219;-79
2022/04/14 06:41:40;;;;;;;29.33;14.75;;;;;;;;;;7387503;19;20892;-78
2022/04/14 06:44:06;;;;;;;20.50;11.88;;;;;;;;;;7388047;19;20005;-78
2022/04/14 06:46:31;;;;;;;22.17;12.05;;;;;;;;;;7386220;19;20576;-80
2022/04/14 06:48:57;;;;;;;28.33;11.27;;;;;;;;;;7390202;19;20462;-78
2022/04/14 06:51:22;;;;;;;22.10;11.60;;;;;;;;;;7390887;19;20247;-78
2022/04/14 06:53:48;;;;;;;20.30;11.43;;;;;;;;;;7384521;19;20319;-77
2022/04/14 06:56:13;;;;;;;20.17;11.45;;;;;;;;;;7389283;19;20014;-77
2022/04/14 06:58:38;;;;;;;19.95;10.73;;;;;;;;;;7389309;19;20466;-79
2022/04/14 07:01:04;;;;;;;20.42;11.43;;;;;;;;;;7389125;19;20462;-78
2022/04/14 07:03:29;;;;;;;21.23;11.13;;;;;;;;;;7388638;19;20039;-77
2022/04/14 07:05:56;;;;;;;21.70;10.70;;;;;;;;;;7389426;19;20110;-78
2022/04/14 07:08:21;;;;;;;19.48;10.80;;;;;;;;;;7387932;19;20267;-79
2022/04/14 07:10:47;;;;;;;22.70;11.63;;;;;;;;;;7387933;19;20431;-77
2022/04/14 07:13:12;;;;;;;19.08;10.10;;;;;;;;;;7388463;19;20010;-77
2022/04/14 07:15:37;;;;;;;22.08;10.55;;;;;;;;;;7381597;19;20019;-79
2022/04/14 07:18:02;;;;;;;20.15;9.38;;;;;;;;;;7388569;19;20003;-77
2022/04/14 07:20:30;;;;;;;12.63;7.68;;;;;;;;;;7386402;19;20053;-80
2022/04/14 07:22:55;;;;;;;16.30;7.93;;;;;;;;;;7390083;19;20013;-78
2022/04/14 07:25:21;;;;;;;15.57;7.70;;;;;;;;;;7387818;19;20058;-77
2022/04/14 07:27:46;;;;;;;14.18;7.75;;;;;;;;;;7388519;19;20291;-80
2022/04/14 07:30:12;;;;;;;15.18;8.30;;;;;;;;;;7384028;19;20003;-76
2022/04/14 07:32:43;;;;;;;18.38;10.02;;;;;;;;;;7390402;19;20397;-76
2022/04/14 07:35:08;;;;;;;19.98;10.60;;;;;;;;;;7390977;19;20009;-77
2022/04/14 07:37:33;;;;;;;23.75;12.00;;;;;;;;;;7386612;19;20400;-76
2022/04/14 07:39:59;;;;;;;25.48;12.10;;;;;;;;;;7385417;19;20010;-77
2022/04/14 07:42:35;;;;;;;21.08;11.57;;;;;;;;;;7389927;19;20019;-77
2022/04/14 07:45:00;;;;;;;23.40;12.63;;;;;;;;;;7384196;19;20098;-78
2022/04/14 07:47:25;;;;;;;19.08;11.13;;;;;;;;;;7385632;19;20070;-77
2022/04/14 07:49:50;;;;;;;21.07;12.20;;;;;;;;;;7387456;19;20337;-77
2022/04/14 07:52:16;;;;;;;21.73;11.50;;;;;;;;;;7390386;19;20711;-79
2022/04/14 07:54:41;;;;;;;19.00;11.17;;;;;;;;;;7384915;19;19998;-78
2022/04/14 07:57:06;;;;;;;14.10;6.77;;;;;;;;;;7384782;19;20327;-78
2022/04/14 07:59:31;;;;;;;12.80;7.13;;;;;;;;;;7384631;19;20235;-79
2022/04/14 08:02:00;;;;;;;11.95;5.78;;;;;;;;;;7386316;19;20275;-76
2022/04/14 08:04:26;;;;;;;14.65;6.10;;;;;;;;;;7389247;19;20003;-79
2022/04/14 08:06:51;;;;;;;10.27;5.15;;;;;;;;;;7384629;19;20486;-78
2022/04/14 08:09:16;;;;;;;13.57;6.17;;;;;;;;;;7386876;19;20002;-76
2022/04/14 08:11:42;;;;;;;10.53;5.23;;;;;;;;;;7386731;19;20122;-78
2022/04/14 08:14:07;;;;;;;7.60;4.20;;;;;;;;;;7385970;19;20232;-76
2022/04/14 08:16:32;;;;;;;10.33;3.97;;;;;;;;;;7381838;19;20015;-78
2022/04/14 08:18:58;;;;;;;8.33;4.00;;;;;;;;;;7388012;19;20247;-76
2022/04/14 08:21:24;;;;;;;7.75;4.07;;;;;;;;;;7383103;19;20805;-77
2022/04/14 08:23:51;;;;;;;9.43;4.07;;;;;;;;;;7387740;19;20003;-76
2022/04/14 08:26:17;;;;;;;8.77;4.05;;;;;;;;;;7385054;19;20078;-76
2022/04/14 08:28:43;;;;;;;8.60;3.90;;;;;;;;;;7384453;19;20011;-77
2022/04/14 08:31:09;;;;;;;9.93;3.78;;;;;;;;;;7385713;19;20823;-77
2022/04/14 08:33:35;;;;;;;11.50;4.38;;;;;;;;;;7386978;19;20007;-77
2022/04/14 08:36:00;;;;;;;7.88;3.80;;;;;;;;;;7386843;19;20032;-78
2022/04/14 08:38:25;;;;;;;7.88;4.00;;;;;;;;;;7384832;19;20266;-77
2022/04/14 08:40:57;;;;;;;6.93;3.72;;;;;;;;;;7383322;19;20046;-78
2022/04/14 08:43:30;;;;;;;7.88;3.78;;;;;;;;;;7383104;19;20027;-79
2022/04/14 08:45:56;;;;;;;10.10;4.37;;;;;;;;;;7385256;19;20006;-78
2022/04/14 08:48:22;;;;;;;9.02;4.07;;;;;;;;;;7385987;19;20407;-80
2022/04/14 08:50:50;;;;;;;10.23;4.45;;;;;;;;;;7381862;19;20002;-79
2022/04/14 08:53:17;;;;;;;9.02;4.10;;;;;;;;;;7386605;19;20027;-76
2022/04/14 08:55:42;;;;;;;10.35;4.18;;;;;;;;;;7386065;19;20023;-78
2022/04/14 08:58:14;;;;;;;8.65;4.35;;;;;;;;;;7386992;19;20011;-79
2022/04/14 09:00:40;;;;;;;9.43;4.25;;;;;;;;;;7382537;19;19999;-78
2022/04/14 09:03:05;;;;;;;9.02;4.32;;;;;;;;;;7382310;19;20007;-78
2022/04/14 09:05:31;;;;;;;9.40;4.43;;;;;;;;;;7386028;19;19995;-77
2022/04/14 09:07:56;;;;;;;8.02;4.78;;;;;;;;;;7381687;19;20010;-79
2022/04/14 09:10:21;;;;;;;9.93;5.13;;;;;;;;;;7385510;19;20005;-78
2022/04/14 09:12:47;;;;;;;10.63;4.75;;;;;;;;;;7386571;19;20596;-77
2022/04/14 09:15:13;;;;;;;9.82;4.68;;;;;;;;;;7379876;19;19998;-78
2022/04/14 09:17:38;;;;;;;10.73;4.75;;;;;;;;;;7380932;19;20017;-77
2022/04/14 09:20:22;;;;;;;9.87;4.40;;;;;;;;;;7383963;19;20355;-77
2022/04/14 09:22:47;;;;;;;;;;;;;;;;;;7386998;19;20014;-78
2022/04/14 09:25:20;;;;;;;9.68;4.30;;;;;;;;;;7385428;19;19926;-77
2022/04/14 09:27:45;;;;;;;9.47;4.37;;;;;;;;;;7378512;19;20021;-78
2022/04/14 09:30:17;;;;;;;10.20;4.55;;;;;;;;;;7379522;19;20259;-78
2022/04/14 09:32:45;;;;;;;7.32;4.22;;;;;;;;;;7384971;19;20604;-78
2022/04/14 09:35:17;;;;;;;9.65;3.92;;;;;;;;;;7386631;19;20436;-78
2022/04/14 09:37:43;;;;;;;11.38;4.60;;;;;;;;;;7382052;19;20272;-78
2022/04/14 09:40:09;;;;;;;8.77;4.07;;;;;;;;;;7385025;19;19994;-79
2022/04/14 09:42:38;;;;;;;8.43;4.57;;;;;;;;;;7381901;19;20010;-78
2022/04/14 09:45:19;;;;;;;9.07;4.28;;;;;;;;;;7379337;19;20017;-78
2022/04/14 09:47:44;;;;;;;10.85;4.22;;;;;;;;;;7383094;19;20006;-78
2022/04/14 09:50:22;;;;;;;8.50;3.92;;;;;;;;;;7381041;19;20006;-79
2022/04/14 09:52:57;;;;;;;9.57;4.28;;;;;;;;;;7385215;19;20033;-78
2022/04/14 09:55:22;;;;;;;8.45;3.63;;;;;;;;;;7381972;19;20351;-78
2022/04/14 09:58:10;;;;;;;9.53;3.67;;;;;;;;;;7379351;19;20011;-78
2022/04/14 10:00:36;;;;;;;10.80;3.78;;;;;;;;;;7379457;19;20041;-78
2022/04/14 10:03:15;;;;;;;6.10;2.65;;;;;;;;;;7383198;19;20019;-77
2022/04/14 10:05:41;;;;;;;10.70;3.15;;;;;;;;;;7381972;19;20321;-78
2022/04/14 10:08:09;;;;;;;7.63;3.00;;;;;;;;;;7380586;19;20082;-78
2022/04/14 10:10:38;;;;;;;8.15;3.50;;;;;;;;;;7381982;19;19998;-78
2022/04/14 10:13:07;;;;;;;6.60;2.60;;;;;;;;;;7383645;19;20351;-78
2022/04/14 10:15:52;;;;;;;7.82;3.17;;;;;;;;;;7378692;19;20026;-77
2022/04/14 10:18:18;;;;;;;7.72;3.38;;;;;;;;;;7380178;19;20018;-78
2022/04/14 10:20:44;;;;;;;8.85;3.63;;;;;;;;;;7384291;19;20009;-80
2022/04/14 10:23:10;;;;;;;9.43;3.80;;;;;;;;;;7384338;19;20600;-78
2022/04/14 10:25:38;;;;;;;8.88;4.05;;;;;;;;;;7381611;19;20066;-79
2022/04/14 10:28:05;;;;;;;8.98;3.63;;;;;;;;;;7382215;19;20015;-78
2022/04/14 10:30:30;;;;;;;8.88;3.45;;;;;;;;;;7379452;19;20364;-78
2022/04/14 10:32:56;;;;;;;5.87;2.87;;;;;;;;;;7378657;19;20027;-77
2022/04/14 10:35:25;;;;;;;7.97;3.50;;;;;;;;;;7383692;19;20247;-78
2022/04/14 10:37:57;;;;;;;10.02;4.00;;;;;;;;;;7383711;19;20470;-78
2022/04/14 10:40:22;;;;;;;9.18;3.28;;;;;;;;;;7382762;19;20345;-79
2022/04/14 10:42:54;;;;;;;6.97;3.08;;;;;;;;;;7377900;19;20443;-78
2022/04/14 10:45:22;;;;;;;7.55;3.40;;;;;;;;;;7375179;19;20003;-78
2022/04/14 10:47:50;;;;;;;6.93;2.85;;;;;;;;;;7379492;19;20025;-78
2022/04/14 10:50:19;;;;;;;7.95;3.05;;;;;;;;;;7383283;19;20006;-78
2022/04/14 10:52:59;;;;;;;10.10;3.65;;;;;;;;;;7379982;19;20597;-78
2022/04/14 10:55:38;;;;;;;8.98;4.30;;;;;;;;;;7383005;19;20002;-77
2022/04/14 10:58:04;;;;;;;10.30;2.92;;;;;;;;;;7382707;19;20018;-78
2022/04/14 11:00:32;;;;;;;9.27;3.20;;;;;;;;;;7379056;19;19999;-78
2022/04/14 11:03:01;;;;;;;7.75;3.45;;;;;;;;;;7380995;19;20018;-77
2022/04/14 11:05:41;;;;;;;6.70;3.50;;;;;;;;;;7383508;19;20020;-77
2022/04/14 11:08:19;;;;;;;10.50;3.83;;;;;;;;;;7381912;19;20515;-77
2022/04/14 11:10:53;;;;;;;6.75;3.38;;;;;;;;;;7381656;19;19999;-77
2022/04/14 11:13:18;;;;;;;5.82;2.83;;;;;;;;;;7380459;19;20018;-79
2022/04/14 11:15:44;;;;;;;10.77;3.80;;;;;;;;;;7377468;19;20362;-79
2022/04/14 11:18:09;;;;;;;6.93;3.57;;;;;;;;;;7379040;19;20013;-77
2022/04/14 11:20:34;;;;;;;10.47;2.80;;;;;;;;;;7382063;19;20022;-77
2022/04/14 11:23:03;;;;;;;8.45;2.75;;;;;;;;;;7385770;19;20015;-78
2022/04/14 11:25:49;;;;;;;7.88;2.85;;;;;;;;;;7385402;19;20006;-79
2022/04/14 11:28:18;;;;;;;7.45;2.95;;;;;;;;;;7387130;19;20355;-77
2022/04/14 11:30:43;;;;;;;9.52;2.90;;;;;;;;;;7383537;19;20002;-78
2022/04/14 11:33:12;;;;;;;7.18;2.88;;;;;;;;;;7389000;19;20540;-79
2022/04/14 11:35:43;;;;;;;7.65;3.63;;;;;;;;;;7389689;19;19998;-77
2022/04/14 11:38:10;;;;;;;10.27;4.50;;;;;;;;;;7383608;19;20018;-77
2022/04/14 11:40:38;;;;;;;7.28;3.60;;;;;;;;;;7383906;19;20003;-77
2022/04/14 11:43:06;;;;;;;9.75;3.70;;;;;;;;;;7389169;19;20022;-78
2022/04/14 11:45:31;;;;;;;9.75;4.18;;;;;;;;;;7385238;19;20022;-79
2022/04/14 11:48:03;;;;;;;7.15;3.60;;;;;;;;;;7387770;19;20006;-77
2022/04/14 11:50:29;;;;;;;8.32;2.90;;;;;;;;;;7329002;19;20031;-76
2022/04/14 11:52:59;;;;;;;8.40;2.70;;;;;;;;;;7376020;19;20019;-79
2022/04/14 11:55:34;;;;;;;6.03;2.35;;;;;;;;;;7376339;19;20010;-78
2022/04/14 11:58:03;;;;;;;5.88;2.55;;;;;;;;;;7377792;19;20010;-79
2022/04/14 12:00:28;;;;;;;7.95;2.60;;;;;;;;;;7369685;19;20005;-79
2022/04/14 12:02:57;;;;;;;8.73;3.03;;;;;;;;;;7378880;19;20011;-77
2022/04/14 12:05:23;;;;;;;8.45;2.88;;;;;;;;;;7382254;19;20002;-79
2022/04/14 12:07:48;;;;;;;6.90;2.70;;;;;;;;;;7374323;19;20021;-78
2022/04/14 12:10:13;;;;;;;6.72;2.47;;;;;;;;;;7379043;19;20015;-77
2022/04/14 12:12:39;;;;;;;11.57;2.70;;;;;;;;;;7383074;19;20444;-76
2022/04/14 12:15:05;;;;;;;6.07;2.00;;;;;;;;;;7369833;19;20592;-79
2022/04/14 12:17:30;;;;;;;6.80;1.98;;;;;;;;;;7381687;19;20491;-79
2022/04/14 12:19:57;;;;;;;5.80;1.90;;;;;;;;;;7383577;19;20006;-77
2022/04/14 12:22:26;;;;;;;5.88;2.35;;;;;;;;;;7378517;19;20014;-77
2022/04/14 12:24:58;;;;;;;7.13;2.63;;;;;;;;;;7379829;19;20367;-78
2022/04/14 12:27:28;;;;;;;7.15;1.80;;;;;;;;;;7374556;19;20018;-78
2022/04/14 12:29:54;;;;;;;5.50;1.92;;;;;;;;;;7375738;19;20031;-80
2022/04/14 12:32:23;;;;;;;5.85;1.75;;;;;;;;;;7380625;19;20352;-78
2022/04/14 12:34:48;;;;;;;3.92;1.58;;;;;;;;;;7378594;19;20014;-77
2022/04/14 12:37:13;;;;;;;4.67;1.57;;;;;;;;;;7375967;19;20015;-78
2022/04/14 12:39:58;;;;;;;4.15;1.70;;;;;;;;;;7374907;19;19999;-79
2022/04/14 12:42:32;;;;;;;5.18;1.58;;;;;;;;;;7376395;19;20607;-77
2022/04/14 12:44:57;;;;;;;;;;;;;;;;;;7377391;19;20011;-78
2022/04/14 12:47:31;;;;;;;9.45;2.35;;;;;;;;;;7379954;19;19915;-77
2022/04/14 12:50:00;;;;;;;5.97;1.52;;;;;;;;;;7379187;19;19999;-77
2022/04/14 12:52:26;;;;;;;5.55;1.80;;;;;;;;;;7381142;19;20445;-78
2022/04/14 12:54:52;;;;;;;4.10;1.30;;;;;;;;;;7366877;19;20011;-77
2022/04/14 12:57:21;;;;;;;7.88;1.50;;;;;;;;;;7378850;19;20592;-78
2022/04/14 13:00:10;;;;;;;5.10;1.80;;;;;;;;;;7366691;19;20871;-76
2022/04/14 13:02:36;;;;;;;5.72;1.80;;;;;;;;;;7377107;19;20021;-77
2022/04/14 13:05:08;;;;;;;8.30;1.50;;;;;;;;;;7379707;19;20006;-78
2022/04/14 13:07:44;;;;;;;5.47;1.90;;;;;;;;;;7377823;19;20018;-78
2022/04/14 13:10:09;;;;;;;10.02;1.55;;;;;;;;;;7356089;19;20482;-77
2022/04/14 13:12:41;;;;;;;6.77;1.87;;;;;;;;;;7386101;19;20034;-77
2022/04/14 13:15:09;;;;;;;4.97;1.50;;;;;;;;;;7381323;19;20244;-79
2022/04/14 13:17:37;;;;;;;5.72;1.90;;;;;;;;;;7383739;19;20510;-78
2022/04/14 13:20:13;;;;;;;6.97;2.10;;;;;;;;;;7386110;19;20490;-75
2022/04/14 13:22:39;;;;;;;5.00;2.00;;;;;;;;;;7378430;19;20021;-77
2022/04/14 13:25:04;;;;;;;6.55;2.08;;;;;;;;;;7385744;19;20074;-77
2022/04/14 13:27:30;;;;;;;5.63;1.90;;;;;;;;;;7382606;19;20011;-78
2022/04/14 13:29:55;;;;;;;6.80;2.00;;;;;;;;;;7377027;19;20074;-76
2022/04/14 13:32:20;;;;;;;5.95;1.90;;;;;;;;;;7385116;19;20267;-77
2022/04/14 13:34:45;;;;;;;8.77;2.33;;;;;;;;;;7384347;19;20006;-76
2022/04/14 13:37:10;;;;;;;6.57;2.30;;;;;;;;;;7380833;19;20411;-77
2022/04/14 13:39:36;;;;;;;5.13;1.87;;;;;;;;;;7383614;19;20472;-77
2022/04/14 13:42:03;;;;;;;5.93;2.30;;;;;;;;;;7383693;19;20026;-77
2022/04/14 13:44:28;;;;;;;6.20;2.40;;;;;;;;;;7376319;19;20078;-78
2022/04/14 13:46:53;;;;;;;5.78;2.70;;;;;;;;;;7380518;19;20023;-76
2022/04/14 13:49:19;;;;;;;4.77;2.20;;;;;;;;;;7385346;19;19987;-76
2022/04/14 13:51:44;;;;;;;7.83;1.80;;;;;;;;;;7384763;19;20011;-76
2022/04/14 13:54:09;;;;;;;6.50;2.27;;;;;;;;;;7382074;19;20762;-76
2022/04/14 13:56:34;;;;;;;7.55;2.22;;;;;;;;;;7382296;19;20018;-78
2022/04/14 13:59:02;;;;;;;5.73;1.80;;;;;;;;;;7379881;19;20003;-77
2022/04/14 14:01:28;;;;;;;6.75;1.95;;;;;;;;;;7382391;19;20486;-76
2022/04/14 14:03:53;;;;;;;5.13;1.50;;;;;;;;;;7384969;19;20009;-78
2022/04/14 14:06:19;;;;;;;8.38;2.00;;;;;;;;;;7374013;19;20014;-77
2022/04/14 14:08:44;;;;;;;5.10;1.80;;;;;;;;;;7382834;19;19990;-78
2022/04/14 14:11:10;;;;;;;9.93;1.63;;;;;;;;;;7377488;19;20074;-76
2022/04/14 14:13:36;;;;;;;7.32;1.50;;;;;;;;;;7380024;19;20010;-77
2022/04/14 14:16:01;;;;;;;6.63;1.90;;;;;;;;;;7381913;19;20003;-77
2022/04/14 14:18:27;;;;;;;5.90;2.35;;;;;;;;;;7378755;19;20036;-76
2022/04/14 14:20:52;;;;;;;7.30;2.10;;;;;;;;;;7384358;19;20090;-77
2022/04/14 14:23:17;;;;;;;5.32;1.85;;;;;;;;;;7383402;19;20295;-76
2022/04/14 14:25:42;;;;;;;4.43;1.67;;;;;;;;;;7381406;19;20018;-76